sensor_id;sensor_type;location;lat;lon;timestamp;temperature;humidity
12315;DHT22;23886;46.614;14.276;2022-07-29T00:02:06;18.90;99.90
12315;DHT22;23886;46.614;14.276;2022-07-29T00:04:34;18.80;99.90
12315;DHT22;23886;46.614;14.276;2022-07-29T00:07:01;18.60;99.90
12315;DHT22;23886;46.614;14.276;2022-07-29T00:09:28;18.60;99.90
12315;DHT22;23886;46.614;14.276;2022-07-29T00:11:58;18.70;99.90
12315;DHT22;23886;46.614;14.276;2022-07-29T00:14:27;18.50;99.90
12315;DHT22;23886;46.614;14.276;2022-07-29T00:16:54;18.40;99.90
12315;DHT22;23886;46.614;14.276;2022-07-29T00:19:21;18.60;99.90
12315;DHT22;23886;46.614;14.276;2022-07-29T00:21:48;18.60;99.90
12315;DHT22;23886;46.614;14.276;2022-07-29T00:24:15;18.40;99.90
12315;DHT22;23886;46.614;14.276;2022-07-29T00:26:43;18.40;99.90
12315;DHT22;23886;46.614;14.276;2022-07-29T00:29:10;18.40;99.90
12315;DHT22;23886;46.614;14.276;2022-07-29T00:31:38;18.20;99.90
12315;DHT22;23886;46.614;14.276;2022-07-29T00:34:05;18.30;99.90
12315;DHT22;23886;46.614;14.276;2022-07-29T00:36:52;18.30;99.90
12315;DHT22;23886;46.614;14.276;2022-07-29T00:39:18;18.30;99.90
12315;DHT22;23886;46.614;14.276;2022-07-29T00:41:45;18.10;99.90
12315;DHT22;23886;46.614;14.276;2022-07-29T00:44:12;18.10;99.90
12315;DHT22;23886;46.614;14.276;2022-07-29T00:46:40;18.00;99.90
12315;DHT22;23886;46.614;14.276;2022-07-29T00:49:07;18.10;99.90
12315;DHT22;23886;46.614;14.276;2022-07-29T00:51:35;18.10;99.90
12315;DHT22;23886;46.614;14.276;2022-07-29T00:54:04;18.10;99.90
12315;DHT22;23886;46.614;14.276;2022-07-29T00:56:31;18.10;99.90
12315;DHT22;23886;46.614;14.276;2022-07-29T00:58:59;18.10;99.90
12315;DHT22;23886;46.614;14.276;2022-07-29T01:01:26;18.20;99.90
12315;DHT22;23886;46.614;14.276;2022-07-29T01:03:55;18.10;99.90
12315;DHT22;23886;46.614;14.276;2022-07-29T01:06:22;18.00;99.90
12315;DHT22;23886;46.614;14.276;2022-07-29T01:08:50;18.10;99.90
12315;DHT22;23886;46.614;14.276;2022-07-29T01:11:18;18.10;99.90
12315;DHT22;23886;46.614;14.276;2022-07-29T01:13:46;18.10;99.90
12315;DHT22;23886;46.614;14.276;2022-07-29T01:16:21;17.90;99.90
12315;DHT22;23886;46.614;14.276;2022-07-29T01:18:56;17.80;99.90
12315;DHT22;23886;46.614;14.276;2022-07-29T01:21:39;17.80;99.90
12315;DHT22;23886;46.614;14.276;2022-07-29T01:27:26;17.70;99.90
12315;DHT22;23886;46.614;14.276;2022-07-29T01:30:01;17.60;99.90
12315;DHT22;23886;46.614;14.276;2022-07-29T01:32:31;17.60;99.90
12315;DHT22;23886;46.614;14.276;2022-07-29T01:35:04;17.60;99.90
12315;DHT22;23886;46.614;14.276;2022-07-29T01:37:37;17.60;99.90
12315;DHT22;23886;46.614;14.276;2022-07-29T01:40:11;17.70;99.90
12315;DHT22;23886;46.614;14.276;2022-07-29T01:42:43;17.80;99.90
12315;DHT22;23886;46.614;14.276;2022-07-29T01:45:15;17.70;99.90
12315;DHT22;23886;46.614;14.276;2022-07-29T01:47:46;17.70;99.90
12315;DHT22;23886;46.614;14.276;2022-07-29T01:50:17;17.70;99.90
12315;DHT22;23886;46.614;14.276;2022-07-29T01:52:49;17.80;99.90
12315;DHT22;23886;46.614;14.276;2022-07-29T01:55:20;17.70;99.90
12315;DHT22;23886;46.614;14.276;2022-07-29T01:57:49;17.60;99.90
12315;DHT22;23886;46.614;14.276;2022-07-29T02:00:18;17.50;99.90
12315;DHT22;23886;46.614;14.276;2022-07-29T02:02:47;17.50;99.90
12315;DHT22;23886;46.614;14.276;2022-07-29T02:05:17;17.50;99.90
12315;DHT22;23886;46.614;14.276;2022-07-29T02:07:46;17.50;99.90
12315;DHT22;23886;46.614;14.276;2022-07-29T02:10:17;17.60;99.90
12315;DHT22;23886;46.614;14.276;2022-07-29T02:12:46;17.80;99.90
12315;DHT22;23886;46.614;14.276;2022-07-29T02:15:15;17.60;99.90
12315;DHT22;23886;46.614;14.276;2022-07-29T02:17:48;17.40;99.90
12315;DHT22;23886;46.614;14.276;2022-07-29T02:20:16;17.30;99.90
12315;DHT22;23886;46.614;14.276;2022-07-29T02:22:44;17.30;99.90
12315;DHT22;23886;46.614;14.276;2022-07-29T02:25:12;17.20;99.90
12315;DHT22;23886;46.614;14.276;2022-07-29T02:27:41;17.00;99.90
12315;DHT22;23886;46.614;14.276;2022-07-29T02:30:09;16.90;99.90
12315;DHT22;23886;46.614;14.276;2022-07-29T02:32:40;16.70;99.90
12315;DHT22;23886;46.614;14.276;2022-07-29T02:35:10;16.70;99.90
12315;DHT22;23886;46.614;14.276;2022-07-29T02:37:40;17.00;99.90
12315;DHT22;23886;46.614;14.276;2022-07-29T02:40:10;17.10;99.90
12315;DHT22;23886;46.614;14.276;2022-07-29T02:42:38;16.90;99.90
12315;DHT22;23886;46.614;14.276;2022-07-29T02:45:08;16.90;99.90
12315;DHT22;23886;46.614;14.276;2022-07-29T02:47:39;17.00;99.90
12315;DHT22;23886;46.614;14.276;2022-07-29T02:50:11;16.90;99.90
12315;DHT22;23886;46.614;14.276;2022-07-29T02:52:41;16.90;99.90
12315;DHT22;23886;46.614;14.276;2022-07-29T02:55:15;16.80;99.90
12315;DHT22;23886;46.614;14.276;2022-07-29T02:57:46;16.80;99.90
12315;DHT22;23886;46.614;14.276;2022-07-29T03:00:15;16.70;99.90
12315;DHT22;23886;46.614;14.276;2022-07-29T03:02:45;16.70;99.90
12315;DHT22;23886;46.614;14.276;2022-07-29T03:05:19;16.90;99.90
12315;DHT22;23886;46.614;14.276;2022-07-29T03:07:51;16.80;99.90
12315;DHT22;23886;46.614;14.276;2022-07-29T03:10:20;16.90;99.90
12315;DHT22;23886;46.614;14.276;2022-07-29T03:12:48;16.80;99.90
12315;DHT22;23886;46.614;14.276;2022-07-29T03:15:15;16.80;99.90
12315;DHT22;23886;46.614;14.276;2022-07-29T03:17:43;16.80;99.90
12315;DHT22;23886;46.614;14.276;2022-07-29T03:20:11;16.70;99.90
12315;DHT22;23886;46.614;14.276;2022-07-29T03:22:41;16.60;99.90
12315;DHT22;23886;46.614;14.276;2022-07-29T03:25:10;16.40;99.90
12315;DHT22;23886;46.614;14.276;2022-07-29T03:27:37;16.40;99.90
12315;DHT22;23886;46.614;14.276;2022-07-29T03:30:06;16.40;99.90
12315;DHT22;23886;46.614;14.276;2022-07-29T03:32:34;16.40;99.90
12315;DHT22;23886;46.614;14.276;2022-07-29T03:35:01;16.40;99.90
12315;DHT22;23886;46.614;14.276;2022-07-29T03:37:28;16.50;99.90
12315;DHT22;23886;46.614;14.276;2022-07-29T03:39:58;16.40;99.90
12315;DHT22;23886;46.614;14.276;2022-07-29T03:42:28;16.60;99.90
12315;DHT22;23886;46.614;14.276;2022-07-29T03:44:57;16.50;99.90
12315;DHT22;23886;46.614;14.276;2022-07-29T03:47:27;16.50;99.90
12315;DHT22;23886;46.614;14.276;2022-07-29T03:50:00;16.60;99.90
12315;DHT22;23886;46.614;14.276;2022-07-29T03:52:28;16.70;99.90
12315;DHT22;23886;46.614;14.276;2022-07-29T03:54:57;16.70;99.90
12315;DHT22;23886;46.614;14.276;2022-07-29T03:57:26;16.70;99.90
12315;DHT22;23886;46.614;14.276;2022-07-29T03:59:54;16.70;99.90
12315;DHT22;23886;46.614;14.276;2022-07-29T04:02:22;16.80;99.90
12315;DHT22;23886;46.614;14.276;2022-07-29T04:04:50;16.80;99.90
12315;DHT22;23886;46.614;14.276;2022-07-29T04:07:17;16.70;99.90
12315;DHT22;23886;46.614;14.276;2022-07-29T04:09:44;16.60;99.90
12315;DHT22;23886;46.614;14.276;2022-07-29T04:12:12;16.70;99.90
12315;DHT22;23886;46.614;14.276;2022-07-29T04:14:39;16.80;99.90
12315;DHT22;23886;46.614;14.276;2022-07-29T04:17:06;16.80;99.90
12315;DHT22;23886;46.614;14.276;2022-07-29T04:19:33;16.80;99.90
12315;DHT22;23886;46.614;14.276;2022-07-29T04:22:01;17.00;99.90
12315;DHT22;23886;46.614;14.276;2022-07-29T04:24:28;17.00;99.90
12315;DHT22;23886;46.614;14.276;2022-07-29T04:26:55;16.90;99.90
12315;DHT22;23886;46.614;14.276;2022-07-29T04:29:23;17.00;99.90
12315;DHT22;23886;46.614;14.276;2022-07-29T04:31:50;17.00;99.90
12315;DHT22;23886;46.614;14.276;2022-07-29T04:34:17;17.10;99.90
12315;DHT22;23886;46.614;14.276;2022-07-29T04:36:44;17.00;99.90
12315;DHT22;23886;46.614;14.276;2022-07-29T04:39:12;17.10;99.90
12315;DHT22;23886;46.614;14.276;2022-07-29T04:41:39;17.20;99.90
12315;DHT22;23886;46.614;14.276;2022-07-29T04:44:06;17.40;99.90
12315;DHT22;23886;46.614;14.276;2022-07-29T04:46:35;17.40;99.90
12315;DHT22;23886;46.614;14.276;2022-07-29T04:49:02;17.50;99.90
12315;DHT22;23886;46.614;14.276;2022-07-29T04:51:29;17.60;99.90
12315;DHT22;23886;46.614;14.276;2022-07-29T04:53:56;17.70;99.90
12315;DHT22;23886;46.614;14.276;2022-07-29T04:56:23;17.80;99.90
12315;DHT22;23886;46.614;14.276;2022-07-29T04:58:50;18.00;99.90
12315;DHT22;23886;46.614;14.276;2022-07-29T05:01:18;18.20;99.90
12315;DHT22;23886;46.614;14.276;2022-07-29T05:03:46;18.30;99.90
12315;DHT22;23886;46.614;14.276;2022-07-29T05:06:13;18.40;99.90
12315;DHT22;23886;46.614;14.276;2022-07-29T05:08:40;18.40;99.90
12315;DHT22;23886;46.614;14.276;2022-07-29T05:11:08;18.40;99.90
12315;DHT22;23886;46.614;14.276;2022-07-29T05:13:35;18.50;99.90
12315;DHT22;23886;46.614;14.276;2022-07-29T05:16:02;18.40;99.90
12315;DHT22;23886;46.614;14.276;2022-07-29T05:18:29;18.50;99.90
12315;DHT22;23886;46.614;14.276;2022-07-29T05:20:57;18.60;99.90
12315;DHT22;23886;46.614;14.276;2022-07-29T05:23:24;18.70;99.90
12315;DHT22;23886;46.614;14.276;2022-07-29T05:25:51;18.90;99.90
12315;DHT22;23886;46.614;14.276;2022-07-29T05:28:18;19.00;99.90
12315;DHT22;23886;46.614;14.276;2022-07-29T05:30:45;19.10;99.90
12315;DHT22;23886;46.614;14.276;2022-07-29T05:33:12;19.20;99.90
12315;DHT22;23886;46.614;14.276;2022-07-29T05:35:39;19.40;99.90
12315;DHT22;23886;46.614;14.276;2022-07-29T05:38:07;19.50;99.90
12315;DHT22;23886;46.614;14.276;2022-07-29T05:40:34;19.70;99.90
12315;DHT22;23886;46.614;14.276;2022-07-29T05:43:01;19.70;99.90
12315;DHT22;23886;46.614;14.276;2022-07-29T05:45:28;19.80;99.90
12315;DHT22;23886;46.614;14.276;2022-07-29T05:47:55;20.00;99.90
12315;DHT22;23886;46.614;14.276;2022-07-29T05:50:22;19.90;99.90
12315;DHT22;23886;46.614;14.276;2022-07-29T05:52:50;19.90;99.90
12315;DHT22;23886;46.614;14.276;2022-07-29T05:55:19;19.80;99.90
12315;DHT22;23886;46.614;14.276;2022-07-29T05:57:45;19.80;99.90
12315;DHT22;23886;46.614;14.276;2022-07-29T06:00:13;20.20;99.90
12315;DHT22;23886;46.614;14.276;2022-07-29T06:02:40;20.30;99.90
12315;DHT22;23886;46.614;14.276;2022-07-29T06:05:07;20.10;99.90
12315;DHT22;23886;46.614;14.276;2022-07-29T06:07:34;20.30;99.90
12315;DHT22;23886;46.614;14.276;2022-07-29T06:10:02;20.50;99.90
12315;DHT22;23886;46.614;14.276;2022-07-29T06:12:30;20.60;99.90
12315;DHT22;23886;46.614;14.276;2022-07-29T06:14:57;20.60;99.90
12315;DHT22;23886;46.614;14.276;2022-07-29T06:17:24;20.70;99.90
12315;DHT22;23886;46.614;14.276;2022-07-29T06:19:52;20.50;99.90
12315;DHT22;23886;46.614;14.276;2022-07-29T06:22:23;20.40;99.90
12315;DHT22;23886;46.614;14.276;2022-07-29T06:24:50;20.30;99.90
12315;DHT22;23886;46.614;14.276;2022-07-29T06:27:18;20.30;99.90
12315;DHT22;23886;46.614;14.276;2022-07-29T06:29:46;20.40;99.90
12315;DHT22;23886;46.614;14.276;2022-07-29T06:32:13;20.40;99.90
12315;DHT22;23886;46.614;14.276;2022-07-29T06:34:40;20.50;99.90
12315;DHT22;23886;46.614;14.276;2022-07-29T06:37:07;20.50;99.90
12315;DHT22;23886;46.614;14.276;2022-07-29T06:39:37;20.30;99.90
12315;DHT22;23886;46.614;14.276;2022-07-29T06:42:04;20.40;99.90
12315;DHT22;23886;46.614;14.276;2022-07-29T06:44:32;20.50;99.90
12315;DHT22;23886;46.614;14.276;2022-07-29T06:47:01;20.70;99.90
12315;DHT22;23886;46.614;14.276;2022-07-29T06:49:28;20.80;99.90
12315;DHT22;23886;46.614;14.276;2022-07-29T06:51:55;20.90;99.90
12315;DHT22;23886;46.614;14.276;2022-07-29T06:54:22;20.90;99.90
12315;DHT22;23886;46.614;14.276;2022-07-29T06:56:49;21.00;99.90
12315;DHT22;23886;46.614;14.276;2022-07-29T06:59:16;21.00;99.90
12315;DHT22;23886;46.614;14.276;2022-07-29T07:01:43;21.10;99.90
12315;DHT22;23886;46.614;14.276;2022-07-29T07:04:11;21.00;99.90
12315;DHT22;23886;46.614;14.276;2022-07-29T07:06:38;21.30;99.90
12315;DHT22;23886;46.614;14.276;2022-07-29T07:09:06;21.20;99.90
12315;DHT22;23886;46.614;14.276;2022-07-29T07:11:33;21.40;99.90
12315;DHT22;23886;46.614;14.276;2022-07-29T07:14:10;21.30;99.90
12315;DHT22;23886;46.614;14.276;2022-07-29T07:16:37;21.30;99.90
12315;DHT22;23886;46.614;14.276;2022-07-29T07:19:04;21.10;99.90
12315;DHT22;23886;46.614;14.276;2022-07-29T07:21:33;21.20;99.90
12315;DHT22;23886;46.614;14.276;2022-07-29T07:24:01;21.30;99.90
12315;DHT22;23886;46.614;14.276;2022-07-29T07:26:28;21.20;99.90
12315;DHT22;23886;46.614;14.276;2022-07-29T07:28:55;21.30;99.90
12315;DHT22;23886;46.614;14.276;2022-07-29T07:31:22;21.30;99.90
12315;DHT22;23886;46.614;14.276;2022-07-29T07:33:49;21.20;99.90
12315;DHT22;23886;46.614;14.276;2022-07-29T07:36:17;21.30;99.90
12315;DHT22;23886;46.614;14.276;2022-07-29T07:38:45;21.30;99.90
12315;DHT22;23886;46.614;14.276;2022-07-29T07:41:12;21.40;99.90
12315;DHT22;23886;46.614;14.276;2022-07-29T07:43:39;21.50;99.90
12315;DHT22;23886;46.614;14.276;2022-07-29T07:46:06;21.70;99.90
12315;DHT22;23886;46.614;14.276;2022-07-29T07:48:33;21.90;99.90
12315;DHT22;23886;46.614;14.276;2022-07-29T07:51:00;21.90;99.90
12315;DHT22;23886;46.614;14.276;2022-07-29T07:53:27;22.00;99.90
12315;DHT22;23886;46.614;14.276;2022-07-29T07:55:56;22.20;99.90
12315;DHT22;23886;46.614;14.276;2022-07-29T07:58:23;22.30;99.90
12315;DHT22;23886;46.614;14.276;2022-07-29T08:00:50;22.50;99.90
12315;DHT22;23886;46.614;14.276;2022-07-29T08:03:17;22.50;99.90
12315;DHT22;23886;46.614;14.276;2022-07-29T08:05:44;22.30;99.90
12315;DHT22;23886;46.614;14.276;2022-07-29T08:08:12;22.60;99.90
12315;DHT22;23886;46.614;14.276;2022-07-29T08:10:39;22.60;99.90
12315;DHT22;23886;46.614;14.276;2022-07-29T08:13:25;22.70;99.90
12315;DHT22;23886;46.614;14.276;2022-07-29T08:15:54;22.80;99.90
12315;DHT22;23886;46.614;14.276;2022-07-29T08:18:25;22.70;99.90
12315;DHT22;23886;46.614;14.276;2022-07-29T08:20:52;22.70;99.90
12315;DHT22;23886;46.614;14.276;2022-07-29T08:23:20;22.80;99.90
12315;DHT22;23886;46.614;14.276;2022-07-29T08:25:47;23.20;99.90
12315;DHT22;23886;46.614;14.276;2022-07-29T08:28:14;23.50;99.90
12315;DHT22;23886;46.614;14.276;2022-07-29T08:30:42;23.80;99.90
12315;DHT22;23886;46.614;14.276;2022-07-29T08:33:09;23.80;99.90
12315;DHT22;23886;46.614;14.276;2022-07-29T08:35:36;23.70;99.90
12315;DHT22;23886;46.614;14.276;2022-07-29T08:38:03;23.60;99.90
12315;DHT22;23886;46.614;14.276;2022-07-29T08:40:30;23.80;99.90
12315;DHT22;23886;46.614;14.276;2022-07-29T08:42:57;23.70;99.90
12315;DHT22;23886;46.614;14.276;2022-07-29T08:45:25;23.40;99.90
12315;DHT22;23886;46.614;14.276;2022-07-29T08:47:55;23.70;99.90
12315;DHT22;23886;46.614;14.276;2022-07-29T08:50:22;23.30;99.90
12315;DHT22;23886;46.614;14.276;2022-07-29T08:52:49;23.10;99.90
12315;DHT22;23886;46.614;14.276;2022-07-29T08:55:17;22.80;99.90
12315;DHT22;23886;46.614;14.276;2022-07-29T08:57:45;22.90;99.90
12315;DHT22;23886;46.614;14.276;2022-07-29T09:00:12;23.10;99.90
12315;DHT22;23886;46.614;14.276;2022-07-29T09:02:41;23.00;99.90
12315;DHT22;23886;46.614;14.276;2022-07-29T09:05:13;23.10;99.90
12315;DHT22;23886;46.614;14.276;2022-07-29T09:07:40;23.20;99.90
12315;DHT22;23886;46.614;14.276;2022-07-29T09:10:09;23.10;99.90
12315;DHT22;23886;46.614;14.276;2022-07-29T09:12:37;23.30;99.90
12315;DHT22;23886;46.614;14.276;2022-07-29T09:15:04;23.40;99.90
12315;DHT22;23886;46.614;14.276;2022-07-29T09:17:41;23.50;99.90
12315;DHT22;23886;46.614;14.276;2022-07-29T09:20:10;23.90;99.90
12315;DHT22;23886;46.614;14.276;2022-07-29T09:22:38;24.00;99.90
12315;DHT22;23886;46.614;14.276;2022-07-29T09:25:06;24.10;99.90
12315;DHT22;23886;46.614;14.276;2022-07-29T09:27:34;24.00;99.90
12315;DHT22;23886;46.614;14.276;2022-07-29T09:30:03;24.00;99.90
12315;DHT22;23886;46.614;14.276;2022-07-29T09:32:31;23.80;99.90
12315;DHT22;23886;46.614;14.276;2022-07-29T09:35:15;23.70;99.90
12315;DHT22;23886;46.614;14.276;2022-07-29T09:37:49;23.50;99.90
12315;DHT22;23886;46.614;14.276;2022-07-29T09:40:18;23.70;99.90
12315;DHT22;23886;46.614;14.276;2022-07-29T09:42:46;24.20;99.90
12315;DHT22;23886;46.614;14.276;2022-07-29T09:45:26;24.60;99.90
12315;DHT22;23886;46.614;14.276;2022-07-29T09:47:53;24.60;99.90
12315;DHT22;23886;46.614;14.276;2022-07-29T09:50:33;24.60;99.90
12315;DHT22;23886;46.614;14.276;2022-07-29T09:53:02;24.80;99.90
12315;DHT22;23886;46.614;14.276;2022-07-29T09:55:29;25.10;99.90
12315;DHT22;23886;46.614;14.276;2022-07-29T09:58:15;25.10;99.90
12315;DHT22;23886;46.614;14.276;2022-07-29T10:00:42;25.10;99.90
12315;DHT22;23886;46.614;14.276;2022-07-29T10:03:10;25.10;99.90
12315;DHT22;23886;46.614;14.276;2022-07-29T10:05:37;24.90;99.90
12315;DHT22;23886;46.614;14.276;2022-07-29T10:08:06;24.80;99.70
12315;DHT22;23886;46.614;14.276;2022-07-29T10:10:35;24.90;99.80
12315;DHT22;23886;46.614;14.276;2022-07-29T10:13:04;25.10;99.90
12315;DHT22;23886;46.614;14.276;2022-07-29T10:15:33;25.40;99.90
12315;DHT22;23886;46.614;14.276;2022-07-29T10:18:03;25.70;98.20
12315;DHT22;23886;46.614;14.276;2022-07-29T10:20:30;26.00;98.40
12315;DHT22;23886;46.614;14.276;2022-07-29T10:22:57;25.90;98.00
12315;DHT22;23886;46.614;14.276;2022-07-29T10:25:26;25.90;99.30
12315;DHT22;23886;46.614;14.276;2022-07-29T10:27:53;25.80;98.30
12315;DHT22;23886;46.614;14.276;2022-07-29T10:30:23;26.40;97.90
12315;DHT22;23886;46.614;14.276;2022-07-29T10:33:14;26.60;97.30
12315;DHT22;23886;46.614;14.276;2022-07-29T10:35:54;26.60;96.90
12315;DHT22;23886;46.614;14.276;2022-07-29T10:38:47;26.80;97.10
12315;DHT22;23886;46.614;14.276;2022-07-29T10:41:39;26.40;97.10
12315;DHT22;23886;46.614;14.276;2022-07-29T10:44:15;26.60;96.50
12315;DHT22;23886;46.614;14.276;2022-07-29T10:46:42;27.10;96.20
12315;DHT22;23886;46.614;14.276;2022-07-29T10:49:12;27.20;94.40
12315;DHT22;23886;46.614;14.276;2022-07-29T10:51:58;27.20;95.70
12315;DHT22;23886;46.614;14.276;2022-07-29T10:54:47;27.40;94.20
12315;DHT22;23886;46.614;14.276;2022-07-29T10:57:25;27.10;95.30
12315;DHT22;23886;46.614;14.276;2022-07-29T11:00:30;26.90;94.30
12315;DHT22;23886;46.614;14.276;2022-07-29T11:02:58;27.00;93.60
12315;DHT22;23886;46.614;14.276;2022-07-29T11:05:26;27.40;95.10
12315;DHT22;23886;46.614;14.276;2022-07-29T11:08:17;27.30;95.10
12315;DHT22;23886;46.614;14.276;2022-07-29T11:10:46;27.00;93.30
12315;DHT22;23886;46.614;14.276;2022-07-29T11:13:48;26.80;94.80
12315;DHT22;23886;46.614;14.276;2022-07-29T11:16:17;26.40;95.70
12315;DHT22;23886;46.614;14.276;2022-07-29T11:19:19;26.30;96.70
12315;DHT22;23886;46.614;14.276;2022-07-29T11:21:47;26.50;97.30
12315;DHT22;23886;46.614;14.276;2022-07-29T11:24:18;26.80;97.90
12315;DHT22;23886;46.614;14.276;2022-07-29T11:27:12;26.80;96.10
12315;DHT22;23886;46.614;14.276;2022-07-29T11:29:49;27.00;96.10
12315;DHT22;23886;46.614;14.276;2022-07-29T11:32:17;27.50;94.90
12315;DHT22;23886;46.614;14.276;2022-07-29T11:34:46;28.10;93.70
12315;DHT22;23886;46.614;14.276;2022-07-29T11:37:15;28.50;92.90
12315;DHT22;23886;46.614;14.276;2022-07-29T11:39:44;28.60;91.90
12315;DHT22;23886;46.614;14.276;2022-07-29T11:45:20;28.40;91.90
12315;DHT22;23886;46.614;14.276;2022-07-29T11:47:51;27.80;92.30
12315;DHT22;23886;46.614;14.276;2022-07-29T11:50:28;27.60;93.00
12315;DHT22;23886;46.614;14.276;2022-07-29T11:52:56;28.30;93.60
12315;DHT22;23886;46.614;14.276;2022-07-29T11:55:24;28.90;91.40
12315;DHT22;23886;46.614;14.276;2022-07-29T11:57:52;29.40;91.30
12315;DHT22;23886;46.614;14.276;2022-07-29T12:00:27;29.20;91.30
12315;DHT22;23886;46.614;14.276;2022-07-29T12:02:54;28.90;91.30
12315;DHT22;23886;46.614;14.276;2022-07-29T12:05:31;28.80;91.80
12315;DHT22;23886;46.614;14.276;2022-07-29T12:08:08;29.20;91.80
12315;DHT22;23886;46.614;14.276;2022-07-29T12:10:35;29.80;91.30
12315;DHT22;23886;46.614;14.276;2022-07-29T12:13:02;29.30;90.40
12315;DHT22;23886;46.614;14.276;2022-07-29T12:15:31;29.10;90.40
12315;DHT22;23886;46.614;14.276;2022-07-29T12:17:59;29.30;90.90
12315;DHT22;23886;46.614;14.276;2022-07-29T12:20:35;29.10;91.00
12315;DHT22;23886;46.614;14.276;2022-07-29T12:23:05;29.60;91.00
12315;DHT22;23886;46.614;14.276;2022-07-29T12:25:33;30.40;89.00
12315;DHT22;23886;46.614;14.276;2022-07-29T12:28:03;31.20;87.20
12315;DHT22;23886;46.614;14.276;2022-07-29T12:30:40;31.90;84.30
12315;DHT22;23886;46.614;14.276;2022-07-29T12:33:16;32.60;82.60
12315;DHT22;23886;46.614;14.276;2022-07-29T12:35:45;33.20;80.50
12315;DHT22;23886;46.614;14.276;2022-07-29T12:38:13;31.90;82.10
12315;DHT22;23886;46.614;14.276;2022-07-29T12:40:41;32.80;81.80
12315;DHT22;23886;46.614;14.276;2022-07-29T12:43:10;33.30;79.20
12315;DHT22;23886;46.614;14.276;2022-07-29T12:45:42;34.30;75.80
12315;DHT22;23886;46.614;14.276;2022-07-29T12:48:09;34.40;75.10
12315;DHT22;23886;46.614;14.276;2022-07-29T12:50:51;34.60;72.10
12315;DHT22;23886;46.614;14.276;2022-07-29T12:53:18;33.70;73.20
12315;DHT22;23886;46.614;14.276;2022-07-29T12:55:47;33.90;72.80
12315;DHT22;23886;46.614;14.276;2022-07-29T12:58:41;34.80;72.70
12315;DHT22;23886;46.614;14.276;2022-07-29T13:01:11;34.70;71.10
12315;DHT22;23886;46.614;14.276;2022-07-29T13:03:48;34.80;71.20
12315;DHT22;23886;46.614;14.276;2022-07-29T13:06:33;34.40;70.30
12315;DHT22;23886;46.614;14.276;2022-07-29T13:09:03;34.70;70.40
12315;DHT22;23886;46.614;14.276;2022-07-29T13:11:31;34.60;68.30
12315;DHT22;23886;46.614;14.276;2022-07-29T13:13:58;34.80;67.20
12315;DHT22;23886;46.614;14.276;2022-07-29T13:16:27;34.80;66.50
12315;DHT22;23886;46.614;14.276;2022-07-29T13:19:08;34.40;66.10
12315;DHT22;23886;46.614;14.276;2022-07-29T13:21:35;35.40;66.80
12315;DHT22;23886;46.614;14.276;2022-07-29T13:24:03;35.70;64.30
12315;DHT22;23886;46.614;14.276;2022-07-29T13:26:31;36.00;65.60
12315;DHT22;23886;46.614;14.276;2022-07-29T13:28:58;37.10;63.50
12315;DHT22;23886;46.614;14.276;2022-07-29T13:31:27;37.50;61.60
12315;DHT22;23886;46.614;14.276;2022-07-29T13:33:54;36.80;61.30
12315;DHT22;23886;46.614;14.276;2022-07-29T13:36:21;36.40;61.40
12315;DHT22;23886;46.614;14.276;2022-07-29T13:38:48;36.60;63.30
12315;DHT22;23886;46.614;14.276;2022-07-29T13:41:15;35.80;61.10
12315;DHT22;23886;46.614;14.276;2022-07-29T13:43:42;35.80;62.70
12315;DHT22;23886;46.614;14.276;2022-07-29T13:46:10;36.10;63.10
12315;DHT22;23886;46.614;14.276;2022-07-29T13:48:38;36.60;61.30
12315;DHT22;23886;46.614;14.276;2022-07-29T13:51:05;36.40;61.20
12315;DHT22;23886;46.614;14.276;2022-07-29T13:53:32;36.00;62.20
12315;DHT22;23886;46.614;14.276;2022-07-29T13:55:59;36.60;60.80
12315;DHT22;23886;46.614;14.276;2022-07-29T13:58:26;37.50;60.50
12315;DHT22;23886;46.614;14.276;2022-07-29T14:00:56;38.30;60.30
12315;DHT22;23886;46.614;14.276;2022-07-29T14:03:23;39.20;58.90
12315;DHT22;23886;46.614;14.276;2022-07-29T14:05:51;39.30;58.70
12315;DHT22;23886;46.614;14.276;2022-07-29T14:08:18;39.20;56.30
12315;DHT22;23886;46.614;14.276;2022-07-29T14:10:45;38.80;56.80
12315;DHT22;23886;46.614;14.276;2022-07-29T14:13:12;37.10;58.40
12315;DHT22;23886;46.614;14.276;2022-07-29T14:15:39;36.90;60.30
12315;DHT22;23886;46.614;14.276;2022-07-29T14:18:06;36.10;59.80
12315;DHT22;23886;46.614;14.276;2022-07-29T14:20:33;36.10;60.70
12315;DHT22;23886;46.614;14.276;2022-07-29T14:23:01;37.30;60.20
12315;DHT22;23886;46.614;14.276;2022-07-29T14:25:29;38.90;57.50
12315;DHT22;23886;46.614;14.276;2022-07-29T14:27:55;39.30;57.00
12315;DHT22;23886;46.614;14.276;2022-07-29T14:30:22;39.50;57.00
12315;DHT22;23886;46.614;14.276;2022-07-29T14:32:49;39.40;55.00
12315;DHT22;23886;46.614;14.276;2022-07-29T14:35:16;39.90;56.60
12315;DHT22;23886;46.614;14.276;2022-07-29T14:37:43;41.10;54.70
12315;DHT22;23886;46.614;14.276;2022-07-29T14:40:12;41.90;53.70
12315;DHT22;23886;46.614;14.276;2022-07-29T14:42:39;41.50;52.70
12315;DHT22;23886;46.614;14.276;2022-07-29T14:45:08;40.50;52.90
12315;DHT22;23886;46.614;14.276;2022-07-29T14:47:36;38.40;55.80
12315;DHT22;23886;46.614;14.276;2022-07-29T14:50:05;39.40;55.40
12315;DHT22;23886;46.614;14.276;2022-07-29T14:52:32;40.50;54.80
12315;DHT22;23886;46.614;14.276;2022-07-29T14:54:59;41.10;53.50
12315;DHT22;23886;46.614;14.276;2022-07-29T14:57:27;41.00;53.40
12315;DHT22;23886;46.614;14.276;2022-07-29T14:59:54;41.70;52.90
12315;DHT22;23886;46.614;14.276;2022-07-29T15:02:21;40.60;52.90
12315;DHT22;23886;46.614;14.276;2022-07-29T15:04:48;40.00;55.90
12315;DHT22;23886;46.614;14.276;2022-07-29T15:07:15;41.10;53.50
12315;DHT22;23886;46.614;14.276;2022-07-29T15:09:42;41.40;52.70
12315;DHT22;23886;46.614;14.276;2022-07-29T15:12:11;39.30;55.00
12315;DHT22;23886;46.614;14.276;2022-07-29T15:14:39;38.30;56.70
12315;DHT22;23886;46.614;14.276;2022-07-29T15:17:06;39.10;56.10
12315;DHT22;23886;46.614;14.276;2022-07-29T15:19:33;37.70;56.80
12315;DHT22;23886;46.614;14.276;2022-07-29T15:22:00;36.30;59.00
12315;DHT22;23886;46.614;14.276;2022-07-29T15:24:27;35.30;60.70
12315;DHT22;23886;46.614;14.276;2022-07-29T15:26:54;34.30;62.60
12315;DHT22;23886;46.614;14.276;2022-07-29T15:29:21;33.70;65.00
12315;DHT22;23886;46.614;14.276;2022-07-29T15:31:50;32.90;66.30
12315;DHT22;23886;46.614;14.276;2022-07-29T15:34:17;32.50;68.00
12315;DHT22;23886;46.614;14.276;2022-07-29T15:36:45;33.30;67.10